Time;durP1;ratioP1;P1;durP2;ratioP2;P2;SDS_P1;SDS_P2;PMS_P1;PMS_P2;Temp;Humidity;BMP_temperature;BMP_pressure;BME280_temperature;BME280_humidity;BME280_pressure;Samples;Min_cycle;Max_cycle;Signal;HPM_P1;HPM_P2
2020/02/21 00:00:12;;;;;;;5.9;2.7;;;;;;;8.16;69.9873;959.4481;;;;
2020/02/21 00:02:37;;;;;;;4.8;2.7;;;;;;;8.27;70.01465;959.517;;;;
2020/02/21 00:05:03;;;;;;;6.5;2.6;;;;;;;8.19;72.13086;959.517;;;;
2020/02/21 00:07:28;;;;;;;6.5;2.5;;;;;;;8.13;73.69141;959.673;;;;
2020/02/21 00:09:53;;;;;;;6.7;3.2;;;;;;;8.03;75.36426;959.8039;;;;
2020/02/21 00:12:18;;;;;;;6;2.8;;;;;;;8.09;75.81055;959.6644;;;;
2020/02/21 00:14:44;;;;;;;7;3.4;;;;;;;7.97;91.96387;959.5238;;;;
2020/02/21 00:17:09;;;;;;;6.8;2.9;;;;;;;7.98;78.44531;959.7197;;;;
2020/02/21 00:19:34;;;;;;;5.5;2.6;;;;;;;7.94;78.33398;959.6617;;;;
2020/02/21 00:21:59;;;;;;;5;2.5;;;;;;;7.92;79.01953;959.704;;;;
2020/02/21 00:24:24;;;;;;;7;3.1;;;;;;;7.92;78.49316;959.7219;;;;
2020/02/21 00:26:49;;;;;;;6.2;3;;;;;;;7.85;81.8418;959.8613;;;;
2020/02/21 00:29:14;;;;;;;5.4;3.2;;;;;;;7.84;80.91406;960.0045;;;;
2020/02/21 00:31:39;;;;;;;6.5;2.9;;;;;;;7.73;83.06445;959.9338;;;;
2020/02/21 00:34:04;;;;;;;7;3.2;;;;;;;7.74;82.78027;959.9015;;;;
2020/02/21 00:36:29;;;;;;;6;3.4;;;;;;;7.7;82.30469;960.0302;;;;
2020/02/21 00:38:54;;;;;;;5.7;3.5;;;;;;;7.75;82.67969;960.0489;;;;
2020/02/21 00:41:40;;;;;;;7.3;3.5;;;;;;;7.68;83.05469;960.0789;;;;
2020/02/21 00:43:50;;;;;;;6.1;3.2;;;;;;;7.66;83.6123;960.219;;;;
2020/02/21 00:46:11;;;;;;;5.8;3.1;;;;;;;7.6;83.79297;960.2542;;;;
2020/02/21 00:48:36;;;;;;;5.5;2.7;;;;;;;7.63;84.37305;960.2326;;;;
2020/02/21 00:51:01;;;;;;;6.4;3;;;;;;;7.55;84.27539;960.2559;;;;
2020/02/21 00:53:26;;;;;;;4.3;2.8;;;;;;;7.6;84.19336;960.3002;;;;
2020/02/21 00:55:51;;;;;;;5.4;2.7;;;;;;;7.61;84.07129;960.342;;;;
2020/02/21 00:58:16;;;;;;;5.2;3;;;;;;;7.5;84.99805;960.2681;;;;
2020/02/21 01:00:41;;;;;;;5.7;2.9;;;;;;;7.55;84.76758;960.2809;;;;
2020/02/21 01:03:06;;;;;;;5.2;2.8;;;;;;;7.47;86.4541;960.2954;;;;
2020/02/21 01:05:31;;;;;;;5.8;2.8;;;;;;;7.44;86.12891;960.1567;;;;
2020/02/21 01:07:56;;;;;;;5.3;2.6;;;;;;;7.36;86.97852;960.2888;;;;
2020/02/21 01:10:22;;;;;;;6.7;2.8;;;;;;;;;;;;;
2020/02/21 01:12:49;;;;;;;4.8;2.7;;;;;;;;;;;;;
2020/02/21 01:15:12;;;;;;;4.1;2.3;;;;;;;;;;;;;
2020/02/21 01:17:37;;;;;;;3.6;2.2;;;;;;;;;;;;;
2020/02/21 01:20:02;;;;;;;5.9;2.5;;;;;;;;;;;;;
2020/02/21 01:22:27;;;;;;;5.8;2.5;;;;;;;;;;;;;
2020/02/21 01:24:52;;;;;;;4.9;2.6;;;;;;;;;;;;;
2020/02/21 01:27:17;;;;;;;5.2;2.5;;;;;;;;;;;;;
2020/02/21 01:29:42;;;;;;;4.6;2.3;;;;;;;;;;;;;
2020/02/21 01:32:07;;;;;;;5.9;2.9;;;;;;;;;;;;;
2020/02/21 01:34:32;;;;;;;5.2;2.1;;;;;;;;;;;;;
2020/02/21 01:36:57;;;;;;;8.8;1.3;;;;;;;;;;;;;
2020/02/21 01:39:22;;;;;;;3.5;1;;;;;;;;;;;;;
2020/02/21 01:41:48;;;;;;;3.7;0.9;;;;;;;;;;;;;
2020/02/21 01:44:13;;;;;;;2.2;0.9;;;;;;;;;;;;;
2020/02/21 01:46:38;;;;;;;2.6;1.1;;;;;;;;;;;;;
2020/02/21 01:49:03;;;;;;;3;1.3;;;;;;;;;;;;;
2020/02/21 01:51:28;;;;;;;3.1;1;;;;;;;;;;;;;
2020/02/21 01:53:53;;;;;;;1.8;1;;;;;;;;;;;;;
2020/02/21 01:56:18;;;;;;;2.4;1.1;;;;;;;;;;;;;
2020/02/21 01:58:43;;;;;;;2.3;0.9;;;;;;;;;;;;;
2020/02/21 02:01:09;;;;;;;2.3;1;;;;;;;;;;;;;
2020/02/21 02:03:34;;;;;;;1.9;1;;;;;;;;;;;;;
2020/02/21 02:10:49;;;;;;;3;1.2;;;;;;;;;;;;;
2020/02/21 02:15:44;;;;;;;2.1;0.9;;;;;;;;;;;;;
2020/02/21 02:18:04;;;;;;;1.8;0.8;;;;;;;;;;;;;
2020/02/21 02:20:29;;;;;;;3.2;0.8;;;;;;;;;;;;;
2020/02/21 02:22:54;;;;;;;2.5;0.8;;;;;;;;;;;;;
2020/02/21 02:25:19;;;;;;;2.2;0.8;;;;;;;;;;;;;
2020/02/21 02:27:45;;;;;;;2.5;0.9;;;;;;;;;;;;;
2020/02/21 02:30:10;;;;;;;1.7;0.7;;;;;;;;;;;;;
2020/02/21 02:32:35;;;;;;;2.3;0.8;;;;;;;;;;;;;
2020/02/21 02:35:00;;;;;;;2.3;0.7;;;;;;;;;;;;;
2020/02/21 02:37:25;;;;;;;2.3;0.8;;;;;;;;;;;;;
2020/02/21 02:39:50;;;;;;;1.8;0.6;;;;;;;;;;;;;
2020/02/21 02:42:15;;;;;;;1.3;0.6;;;;;;;;;;;;;
2020/02/21 02:44:40;;;;;;;2;0.7;;;;;;;;;;;;;
2020/02/21 02:47:05;;;;;;;1.6;0.6;;;;;;;;;;;;;
2020/02/21 02:49:30;;;;;;;1.6;0.6;;;;;;;;;;;;;
2020/02/21 02:51:57;;;;;;;3.9;0.9;;;;;;;;;;;;;
2020/02/21 02:54:21;;;;;;;2.6;1;;;;;;;;;;;;;
2020/02/21 03:01:21;;;;;;;3.5;0.7;;;;;;;;;;;;;
2020/02/21 03:02:39;;;;;;;2.1;0.6;;;;;;;;;;;;;
2020/02/21 03:04:00;;;;;;;2.9;0.6;;;;;;;;;;;;;
2020/02/21 03:06:25;;;;;;;2.5;0.6;;;;;;;;;;;;;
2020/02/21 03:08:51;;;;;;;1.5;0.6;;;;;;;;;;;;;
2020/02/21 03:11:16;;;;;;;1.5;0.5;;;;;;;;;;;;;
2020/02/21 03:13:41;;;;;;;1.7;0.6;;;;;;;;;;;;;
2020/02/21 03:16:06;;;;;;;2.1;0.7;;;;;;;;;;;;;
2020/02/21 03:18:31;;;;;;;1.4;0.5;;;;;;;;;;;;;
2020/02/21 03:20:56;;;;;;;2.2;0.7;;;;;;;;;;;;;
2020/02/21 03:23:21;;;;;;;2.2;0.8;;;;;;;;;;;;;
2020/02/21 03:25:46;;;;;;;2;0.8;;;;;;;;;;;;;
2020/02/21 03:28:11;;;;;;;2.5;0.8;;;;;;;;;;;;;
2020/02/21 03:30:36;;;;;;;2.3;0.7;;;;;;;;;;;;;
2020/02/21 03:33:01;;;;;;;2;0.6;;;;;;;;;;;;;
2020/02/21 03:35:26;;;;;;;2;0.8;;;;;;;;;;;;;
2020/02/21 03:37:52;;;;;;;1.2;0.6;;;;;;;;;;;;;
2020/02/21 03:40:17;;;;;;;1.9;0.6;;;;;;;;;;;;;
2020/02/21 03:42:42;;;;;;;1.9;0.6;;;;;;;;;;;;;
2020/02/21 03:45:07;;;;;;;2.3;0.8;;;;;;;;;;;;;
2020/02/21 03:47:32;;;;;;;1.5;0.8;;;;;;;;;;;;;
2020/02/21 03:49:57;;;;;;;1.8;0.7;;;;;;;;;;;;;
2020/02/21 03:52:22;;;;;;;2.3;0.8;;;;;;;;;;;;;
2020/02/21 03:54:48;;;;;;;2.1;0.8;;;;;;;;;;;;;
2020/02/21 03:57:13;;;;;;;3.2;0.9;;;;;;;;;;;;;
2020/02/21 03:59:38;;;;;;;1.8;0.8;;;;;;;;;;;;;
2020/02/21 04:02:28;;;;;;;1.3;0.7;;;;;;;3.92;74.75684;965.2123;;;;
2020/02/21 04:04:53;;;;;;;3.6;0.8;;;;;;;3.97;74.41504;965.3125;;;;
2020/02/21 04:07:18;;;;;;;2.3;0.8;;;;;;;4.07;73.37988;965.4504;;;;
2020/02/21 04:09:44;;;;;;;3.2;0.8;;;;;;;4.11;72.75098;965.4064;;;;
2020/02/21 04:12:09;;;;;;;2.7;0.9;;;;;;;4.08;74.34277;965.4644;;;;
2020/02/21 04:14:34;;;;;;;3.8;0.9;;;;;;;4.11;74.85938;965.5808;;;;
2020/02/21 04:16:59;;;;;;;2.3;0.7;;;;;;;4.14;74.52441;965.6652;;;;
2020/02/21 04:19:24;;;;;;;3.3;0.9;;;;;;;4.18;74.21484;965.5555;;;;
2020/02/21 04:21:49;;;;;;;2.6;0.8;;;;;;;4.18;75.04199;965.6771;;;;
2020/02/21 04:24:15;;;;;;;3.4;1;;;;;;;4.19;74.7959;965.6803;;;;
2020/02/21 04:26:40;;;;;;;2.8;0.9;;;;;;;4.12;76.50488;965.6906;;;;
2020/02/21 04:29:05;;;;;;;3;0.9;;;;;;;4.14;75.18164;965.8064;;;;
2020/02/21 04:31:50;;;;;;;3.5;0.8;;;;;;;4.16;75.02734;965.7642;;;;
2020/02/21 04:34:15;;;;;;;3;0.9;;;;;;;4.18;74.14648;965.8326;;;;
2020/02/21 04:36:40;;;;;;;2.2;0.9;;;;;;;4.16;74.50586;965.9594;;;;
2020/02/21 04:39:05;;;;;;;4.7;1;;;;;;;4.1;75.83301;966.133;;;;
2020/02/21 04:41:30;;;;;;;3.6;1;;;;;;;4.09;75.12988;966.2514;;;;
2020/02/21 04:43:55;;;;;;;4.3;1;;;;;;;4.1;75.35645;966.2714;;;;
2020/02/21 04:46:20;;;;;;;3.4;1;;;;;;;4.12;77.08496;966.3458;;;;
2020/02/21 04:48:46;;;;;;;2.3;0.9;;;;;;;4.22;75.29785;966.4674;;;;
2020/02/21 04:51:11;;;;;;;3.7;1;;;;;;;4.21;75.89941;966.4363;;;;
2020/02/21 04:53:36;;;;;;;3.6;1;;;;;;;4.1;76.26367;966.4169;;;;
2020/02/21 04:56:01;;;;;;;3.1;1;;;;;;;4.08;76.64453;966.4676;;;;
2020/02/21 04:58:27;;;;;;;2.8;1.1;;;;;;;4.1;74.6543;966.6287;;;;
2020/02/21 05:00:51;;;;;;;1.8;0.9;;;;;;;4.19;73.30859;966.7473;;;;
2020/02/21 05:03:16;;;;;;;3.2;0.8;;;;;;;4.2;73.73047;966.8033;;;;
2020/02/21 05:05:41;;;;;;;3.7;0.9;;;;;;;4.11;73.44434;966.9608;;;;
2020/02/21 05:08:07;;;;;;;2.9;0.9;;;;;;;4.16;73.86035;966.9908;;;;
2020/02/21 05:10:32;;;;;;;3.5;0.9;;;;;;;4.15;74.86621;967.0963;;;;
2020/02/21 05:12:57;;;;;;;3.4;0.9;;;;;;;4.25;74.7373;967.1958;;;;
2020/02/21 05:15:22;;;;;;;4;0.9;;;;;;;4.18;74.06738;967.2093;;;;
2020/02/21 05:17:47;;;;;;;3.1;1;;;;;;;4.2;73.59375;967.2341;;;;
2020/02/21 05:20:12;;;;;;;4.3;0.9;;;;;;;3.99;75.80273;967.2635;;;;
2020/02/21 05:22:37;;;;;;;3.5;0.9;;;;;;;3.98;75.32324;967.3541;;;;
2020/02/21 05:25:02;;;;;;;4.9;1.2;;;;;;;3.99;74.95215;967.291;;;;
2020/02/21 05:27:28;;;;;;;3.5;1;;;;;;;3.96;75.42188;967.3592;;;;
2020/02/21 05:29:53;;;;;;;3.7;1.1;;;;;;;3.99;75.17871;967.3692;;;;
2020/02/21 05:32:18;;;;;;;4;1;;;;;;;4.1;74.99414;967.4266;;;;
2020/02/21 05:34:43;;;;;;;3.5;1;;;;;;;4.08;74.61719;967.4316;;;;
2020/02/21 05:37:08;;;;;;;4.3;1.4;;;;;;;3.84;74.65332;967.5018;;;;
2020/02/21 05:39:33;;;;;;;4.4;1.3;;;;;;;3.83;76.19336;967.4697;;;;
2020/02/21 05:41:58;;;;;;;3.9;1.4;;;;;;;3.85;76.74121;967.52;;;;
2020/02/21 05:44:23;;;;;;;3.8;1.1;;;;;;;3.87;75.4082;967.6245;;;;
2020/02/21 05:46:49;;;;;;;3.5;1.3;;;;;;;3.87;75.56445;967.6894;;;;
2020/02/21 05:49:14;;;;;;;5;1.2;;;;;;;3.73;75.29199;967.7332;;;;
2020/02/21 05:51:39;;;;;;;5.9;1.4;;;;;;;3.79;74.8252;967.6806;;;;
2020/02/21 05:54:04;;;;;;;3.4;1.2;;;;;;;3.75;74.64941;967.7494;;;;
2020/02/21 05:56:29;;;;;;;3.2;1.3;;;;;;;3.66;76.09473;967.7322;;;;
2020/02/21 05:58:55;;;;;;;3.5;1.2;;;;;;;3.56;75.82813;967.7756;;;;
2020/02/21 06:01:20;;;;;;;4.6;1.3;;;;;;;3.58;76.83887;967.8298;;;;
2020/02/21 06:03:45;;;;;;;4.2;1.4;;;;;;;3.61;75.49609;967.9191;;;;
2020/02/21 06:06:10;;;;;;;4.4;1.2;;;;;;;3.54;74.99707;967.9572;;;;
2020/02/21 06:08:35;;;;;;;4.1;1.8;;;;;;;3.52;76.28613;967.9745;;;;
2020/02/21 06:11:00;;;;;;;3.9;1.2;;;;;;;3.38;74.5625;967.9922;;;;
2020/02/21 06:13:25;;;;;;;5;1.6;;;;;;;3.41;76.41211;968.0785;;;;
2020/02/21 06:15:50;;;;;;;4.7;1.7;;;;;;;3.47;76.17383;968.1096;;;;
2020/02/21 06:18:16;;;;;;;4.9;1.3;;;;;;;3.27;76.56738;968.1529;;;;
2020/02/21 06:20:41;;;;;;;4.5;1.4;;;;;;;3.27;76.02539;968.1635;;;;
2020/02/21 06:23:06;;;;;;;5.9;1.4;;;;;;;3.21;76.3877;968.2352;;;;
2020/02/21 06:25:31;;;;;;;4.2;1.6;;;;;;;3.31;76.40527;968.2944;;;;
2020/02/21 06:27:56;;;;;;;3.6;1.3;;;;;;;3.17;77.04688;968.3945;;;;
2020/02/21 06:30:21;;;;;;;5.2;1.4;;;;;;;3.29;76.25488;968.4796;;;;
2020/02/21 06:32:46;;;;;;;4.3;1.5;;;;;;;3.31;76.46191;968.5564;;;;
2020/02/21 06:35:11;;;;;;;4.4;1.4;;;;;;;3.31;75.2627;968.6141;;;;
2020/02/21 06:37:36;;;;;;;5.2;2.3;;;;;;;3.32;74.73242;968.6716;;;;
2020/02/21 06:40:01;;;;;;;4.5;1.6;;;;;;;3.47;76.32129;968.7097;;;;
2020/02/21 06:42:27;;;;;;;2.9;1.1;;;;;;;3.48;75.33691;968.7776;;;;
2020/02/21 06:44:52;;;;;;;5.1;1.5;;;;;;;3.33;75.02832;968.8113;;;;
2020/02/21 06:47:17;;;;;;;5.1;1.6;;;;;;;3.37;75.85059;968.8678;;;;
2020/02/21 06:49:42;;;;;;;6;1.6;;;;;;;3.34;75.83301;968.9158;;;;
2020/02/21 06:52:07;;;;;;;3.2;1.3;;;;;;;3.37;75.29492;968.9504;;;;
2020/02/21 06:54:33;;;;;;;5.3;1.6;;;;;;;3.33;76.06934;969.033;;;;
2020/02/21 06:56:58;;;;;;;5.2;1.4;;;;;;;3.37;75.81543;969.085;;;;
2020/02/21 06:59:31;;;;;;;4.2;1.4;;;;;;;3.39;75.40137;969.1277;;;;
2020/02/21 07:01:51;;;;;;;4;1.2;;;;;;;3.36;74.10645;969.1556;;;;
2020/02/21 07:04:13;;;;;;;5.5;1.3;;;;;;;3.42;75.03223;969.1794;;;;
2020/02/21 07:06:38;;;;;;;3.7;1.4;;;;;;;3.56;74.04883;969.1804;;;;
2020/02/21 07:09:03;;;;;;;3.6;1.1;;;;;;;3.64;73.58691;969.2919;;;;
2020/02/21 07:11:28;;;;;;;3.2;1.2;;;;;;;3.68;71.83887;969.3706;;;;
2020/02/21 07:13:53;;;;;;;3.3;1.4;;;;;;;3.46;74.19141;969.4984;;;;
2020/02/21 07:16:19;;;;;;;5.3;1.2;;;;;;;3.51;72.54785;969.5364;;;;
2020/02/21 07:18:44;;;;;;;3.8;1.2;;;;;;;3.56;73.17871;969.5603;;;;
2020/02/21 07:21:10;;;;;;;4.3;1.4;;;;;;;3.49;73.60742;969.4913;;;;
2020/02/21 07:23:35;;;;;;;5.6;1.8;;;;;;;3.65;72.41211;969.4361;;;;
2020/02/21 07:26:00;;;;;;;5;2;;;;;;;3.65;72.50293;969.5651;;;;
2020/02/21 07:28:25;;;;;;;6.1;2.1;;;;;;;3.75;72.33984;969.5109;;;;
2020/02/21 07:30:50;;;;;;;4.8;1.5;;;;;;;3.77;70.49512;969.5378;;;;
2020/02/21 07:33:16;;;;;;;4;1.4;;;;;;;3.9;70.43652;969.5648;;;;
2020/02/21 07:35:41;;;;;;;6;1.2;;;;;;;3.88;70.50195;969.6619;;;;
2020/02/21 07:38:07;;;;;;;4.9;1.4;;;;;;;3.96;70.13086;969.6816;;;;
2020/02/21 07:40:32;;;;;;;3.9;1.4;;;;;;;3.91;69.50977;969.6878;;;;
2020/02/21 07:42:57;;;;;;;3.5;1.3;;;;;;;4.1;70.08496;969.7634;;;;
2020/02/21 07:45:22;;;;;;;8.3;1.6;;;;;;;4.17;69.15625;969.803;;;;
2020/02/21 07:47:47;;;;;;;3.8;1.1;;;;;;;4.18;67.75098;969.8439;;;;
2020/02/21 07:50:12;;;;;;;4.4;1.3;;;;;;;4.2;67.70898;969.8911;;;;
2020/02/21 07:52:37;;;;;;;5.5;1.5;;;;;;;4.3;68.8584;970.001;;;;
2020/02/21 07:55:02;;;;;;;7;1.6;;;;;;;4.18;68.11426;969.9674;;;;
2020/02/21 07:57:27;;;;;;;6.9;1.4;;;;;;;4.29;67.66504;970.0383;;;;
2020/02/21 07:59:52;;;;;;;4;1.2;;;;;;;4.28;68.36816;970.1343;;;;
2020/02/21 08:02:18;;;;;;;3.9;1.2;;;;;;;4.3;67.06641;970.1543;;;;
2020/02/21 08:04:43;;;;;;;3.8;1.2;;;;;;;4.43;66.36035;970.128;;;;
2020/02/21 08:07:08;;;;;;;5.9;1.4;;;;;;;4.36;65.82813;970.2651;;;;
2020/02/21 08:09:33;;;;;;;6.3;1.6;;;;;;;4.31;66.22852;970.262;;;;
2020/02/21 08:11:59;;;;;;;5.7;1.5;;;;;;;4.27;67.38965;970.258;;;;
2020/02/21 08:14:24;;;;;;;4;1.4;;;;;;;4.23;66.93164;970.332;;;;
2020/02/21 08:16:49;;;;;;;4.3;1.2;;;;;;;4.27;66.10938;970.3189;;;;
2020/02/21 08:19:14;;;;;;;5;1.5;;;;;;;4.36;65.82813;970.3864;;;;
2020/02/21 08:21:39;;;;;;;5.2;1.4;;;;;;;4.3;65.87695;970.3005;;;;
2020/02/21 08:24:04;;;;;;;4.3;1.4;;;;;;;4.27;65.53125;970.4067;;;;
2020/02/21 08:26:30;;;;;;;3.8;1.3;;;;;;;4.41;65.24512;970.3674;;;;
2020/02/21 08:28:55;;;;;;;3.6;1.3;;;;;;;4.46;65.70801;970.4077;;;;
2020/02/21 08:31:20;;;;;;;4.7;1.2;;;;;;;4.42;65.98438;970.4657;;;;
2020/02/21 08:33:50;;;;;;;3.7;1.4;;;;;;;4.46;63.90527;970.4363;;;;
2020/02/21 08:36:35;;;;;;;4.5;1.4;;;;;;;4.48;63.0791;970.4461;;;;
2020/02/21 08:38:37;;;;;;;5.6;1.4;;;;;;;4.5;64.28418;970.4933;;;;
2020/02/21 08:41:14;;;;;;;6.1;1.5;;;;;;;4.63;63.05371;970.4774;;;;
2020/02/21 08:43:39;;;;;;;6.9;1.6;;;;;;;4.48;62.88477;970.4958;;;;
2020/02/21 08:46:05;;;;;;;3.9;1.3;;;;;;;4.54;62.95117;970.4108;;;;
2020/02/21 08:48:30;;;;;;;3.5;1.4;;;;;;;4.72;63.8418;970.4814;;;;
2020/02/21 08:50:55;;;;;;;4.5;1.4;;;;;;;4.72;62.45508;970.528;;;;
2020/02/21 08:53:20;;;;;;;5;1.5;;;;;;;4.77;62.87207;970.5845;;;;
2020/02/21 08:55:45;;;;;;;5.4;1.3;;;;;;;4.74;64.21875;970.5722;;;;
2020/02/21 08:58:10;;;;;;;5.2;1.4;;;;;;;4.67;64.74121;970.6433;;;;
2020/02/21 09:00:35;;;;;;;5.9;1.4;;;;;;;4.8;63.59082;970.6516;;;;
2020/02/21 09:03:00;;;;;;;4.6;1.5;;;;;;;4.81;64.96777;970.6321;;;;
2020/02/21 09:05:25;;;;;;;6.3;1.7;;;;;;;4.87;64.77344;970.5669;;;;
2020/02/21 09:07:50;;;;;;;7.4;2.1;;;;;;;4.98;64.35742;970.5533;;;;
2020/02/21 09:10:16;;;;;;;9.4;1.8;;;;;;;4.96;63.41016;970.6189;;;;
2020/02/21 09:12:41;;;;;;;3.4;1.2;;;;;;;4.86;64.64551;970.6487;;;;
2020/02/21 09:15:06;;;;;;;4.4;1.5;;;;;;;5.03;62.83008;970.6168;;;;
2020/02/21 09:17:31;;;;;;;4.3;1.5;;;;;;;4.87;63.31641;970.6408;;;;
2020/02/21 09:19:56;;;;;;;5.6;1.3;;;;;;;4.98;63.58398;970.616;;;;
2020/02/21 09:22:21;;;;;;;4.6;1.7;;;;;;;5.01;63.32813;970.6898;;;;
2020/02/21 09:24:46;;;;;;;7.5;1.7;;;;;;;4.81;62.70703;970.6852;;;;
2020/02/21 09:27:11;;;;;;;6.3;1.7;;;;;;;4.9;63.20801;970.7953;;;;
2020/02/21 09:29:36;;;;;;;5.2;1.7;;;;;;;4.98;62.77832;970.861;;;;
2020/02/21 09:32:02;;;;;;;4.9;1.7;;;;;;;5.02;60.63672;970.8641;;;;
2020/02/21 09:34:27;;;;;;;5.9;1.9;;;;;;;4.91;60.51758;970.9182;;;;
2020/02/21 09:36:52;;;;;;;5.3;2.3;;;;;;;4.97;61.08398;970.9153;;;;
2020/02/21 09:39:17;;;;;;;5.6;2.3;;;;;;;4.96;62.35449;970.9962;;;;
2020/02/21 09:41:42;;;;;;;4.7;1.5;;;;;;;4.91;62.7334;970.9507;;;;
2020/02/21 09:44:07;;;;;;;5.1;1.5;;;;;;;4.99;62.91602;970.9495;;;;
2020/02/21 09:46:32;;;;;;;5.7;1.4;;;;;;;4.98;63.19922;970.8812;;;;
2020/02/21 09:49:03;;;;;;;5.1;1.4;;;;;;;4.97;62.32227;970.9147;;;;
2020/02/21 09:51:22;;;;;;;5.7;1.9;;;;;;;5.06;64.87988;970.9172;;;;
2020/02/21 09:53:48;;;;;;;5.6;1.3;;;;;;;5.16;61.71387;970.9531;;;;
2020/02/21 09:56:13;;;;;;;6.3;1.7;;;;;;;5.22;61.17578;970.9711;;;;
2020/02/21 10:01:04;;;;;;;7.4;1.8;;;;;;;5.4;60.72363;970.9782;;;;
2020/02/21 10:03:28;;;;;;;5;1.4;;;;;;;5.42;59.30469;970.8791;;;;
2020/02/21 10:05:53;;;;;;;5.2;1.2;;;;;;;5.26;58.79395;970.9069;;;;
2020/02/21 10:08:18;;;;;;;7.4;2.8;;;;;;;5.4;58.31348;970.933;;;;
2020/02/21 10:10:43;;;;;;;4.4;1.4;;;;;;;5.58;56.22266;970.9456;;;;
2020/02/21 10:13:08;;;;;;;8.3;2.3;;;;;;;5.54;57.35449;970.8488;;;;
2020/02/21 10:15:33;;;;;;;4.9;2;;;;;;;5.68;57.38477;970.9103;;;;
2020/02/21 10:17:59;;;;;;;6.5;2.3;;;;;;;5.63;56.63867;970.8789;;;;
2020/02/21 10:20:24;;;;;;;5.6;1.5;;;;;;;5.76;56.94043;970.8367;;;;
2020/02/21 10:22:49;;;;;;;7.4;1.7;;;;;;;5.92;57.06348;970.903;;;;
2020/02/21 10:25:14;;;;;;;7.6;1.8;;;;;;;5.73;57.83496;970.8221;;;;
2020/02/21 10:27:39;;;;;;;7;1.6;;;;;;;6;57.2793;970.9095;;;;
2020/02/21 10:30:04;;;;;;;6.7;2;;;;;;;5.89;57.36816;970.8928;;;;
2020/02/21 10:32:29;;;;;;;4.1;1.5;;;;;;;5.74;57.03906;970.9095;;;;
2020/02/21 10:34:55;;;;;;;5.8;1.4;;;;;;;5.59;57.89551;970.9291;;;;
2020/02/21 10:37:20;;;;;;;4.8;1.4;;;;;;;5.63;56.99121;970.9041;;;;
2020/02/21 10:39:45;;;;;;;4.6;1.5;;;;;;;5.81;57.13965;970.8161;;;;
2020/02/21 10:42:10;;;;;;;6.4;1.8;;;;;;;5.81;57.32227;970.8883;;;;
2020/02/21 10:44:35;;;;;;;7.2;2.6;;;;;;;5.98;57.22949;970.8133;;;;
2020/02/21 10:47:00;;;;;;;6;2;;;;;;;5.92;56.20898;970.8008;;;;
2020/02/21 10:49:25;;;;;;;3.5;1.5;;;;;;;5.83;54.77441;970.8397;;;;
2020/02/21 10:51:51;;;;;;;4.1;1.4;;;;;;;6.06;55.03223;970.8569;;;;
2020/02/21 10:54:16;;;;;;;4.5;1.2;;;;;;;5.73;53.9082;970.7503;;;;
2020/02/21 10:56:41;;;;;;;4.3;1.2;;;;;;;6;54.85352;970.8707;;;;
2020/02/21 10:59:06;;;;;;;3.6;1.4;;;;;;;6;55.85547;970.7396;;;;
2020/02/21 11:01:32;;;;;;;4.1;1.4;;;;;;;5.83;57.25781;970.7238;;;;
2020/02/21 11:03:57;;;;;;;3.5;1.4;;;;;;;6.22;57.32031;970.7209;;;;
2020/02/21 11:06:22;;;;;;;4.5;1.4;;;;;;;6.07;57.45996;970.7816;;;;
2020/02/21 11:08:48;;;;;;;5;1.3;;;;;;;6.06;56.72852;970.7217;;;;
2020/02/21 11:11:13;;;;;;;3.2;1.3;;;;;;;6.24;56.28613;970.8109;;;;
2020/02/21 11:13:38;;;;;;;3.1;1.2;;;;;;;6.13;55.47461;970.7762;;;;
2020/02/21 11:16:03;;;;;;;9;4.5;;;;;;;6.29;55.91602;970.8013;;;;
2020/02/21 11:20:54;;;;;;;5.9;2.6;;;;;;;6.35;55.36426;970.8571;;;;
2020/02/21 11:23:23;;;;;;;4.9;1.7;;;;;;;6.13;54.7793;970.8582;;;;
2020/02/21 11:25:44;;;;;;;6.4;1.6;;;;;;;6.29;54.61816;970.7587;;;;
2020/02/21 11:28:10;;;;;;;6.5;1.7;;;;;;;6.37;52.55273;970.7354;;;;
2020/02/21 11:30:35;;;;;;;5.5;1.8;;;;;;;6.49;53.37695;970.6578;;;;
2020/02/21 11:33:00;;;;;;;5.5;1.7;;;;;;;6.73;54.34277;970.6013;;;;
2020/02/21 11:35:25;;;;;;;3;1.4;;;;;;;6.67;55.9082;970.6477;;;;
2020/02/21 11:37:50;;;;;;;4.3;1.5;;;;;;;6.5;56.02344;970.6775;;;;
2020/02/21 11:40:15;;;;;;;4.2;1.6;;;;;;;6.38;55.47168;970.6022;;;;
2020/02/21 11:42:41;;;;;;;4.6;1.7;;;;;;;6.38;54.94727;970.8311;;;;
2020/02/21 11:45:06;;;;;;;4.2;1.6;;;;;;;6.54;55.35645;970.7969;;;;
2020/02/21 11:47:31;;;;;;;4.9;1.5;;;;;;;6.43;54.94238;970.7001;;;;
2020/02/21 11:49:56;;;;;;;5.4;1.3;;;;;;;6.34;55.31836;970.7349;;;;
2020/02/21 11:52:22;;;;;;;5.9;2.1;;;;;;;6.27;54.94531;970.7994;;;;
2020/02/21 11:54:47;;;;;;;5.1;1.8;;;;;;;6.45;53.38379;970.7289;;;;
2020/02/21 11:57:13;;;;;;;4.7;1.4;;;;;;;6.44;52.24316;970.6873;;;;
2020/02/21 11:59:38;;;;;;;4.9;1.4;;;;;;;6.5;52.18066;970.7534;;;;
2020/02/21 12:02:03;;;;;;;4.4;1.6;;;;;;;6.38;53.00977;970.6167;;;;
2020/02/21 12:04:28;;;;;;;4;1.3;;;;;;;6.72;52.23145;970.6078;;;;
2020/02/21 12:06:53;;;;;;;3.9;1.5;;;;;;;6.66;53.87695;970.5397;;;;
2020/02/21 12:09:18;;;;;;;5.2;1.8;;;;;;;6.61;54.88574;970.5019;;;;
2020/02/21 12:11:43;;;;;;;4.3;1.2;;;;;;;6.95;53.73145;970.4763;;;;
2020/02/21 12:14:08;;;;;;;5;1.3;;;;;;;6.73;53.71582;970.4111;;;;
2020/02/21 12:16:33;;;;;;;3.8;1.3;;;;;;;6.79;53.62012;970.435;;;;
2020/02/21 12:18:59;;;;;;;7.1;2.1;;;;;;;6.76;54.0957;970.3572;;;;
2020/02/21 12:21:24;;;;;;;6.2;1.7;;;;;;;6.94;53.45605;970.4346;;;;
2020/02/21 12:23:49;;;;;;;4.6;1.7;;;;;;;6.92;52.75781;970.478;;;;
2020/02/21 12:26:14;;;;;;;6.8;2.4;;;;;;;6.97;53.51758;970.3681;;;;
2020/02/21 12:28:39;;;;;;;4;1.3;;;;;;;7.13;53.61621;970.512;;;;
2020/02/21 12:31:04;;;;;;;4;1.3;;;;;;;7.1;53.01953;970.4684;;;;
2020/02/21 12:33:29;;;;;;;5.2;1.4;;;;;;;6.67;54.72266;970.4171;;;;
2020/02/21 12:35:55;;;;;;;6.4;1.9;;;;;;;6.85;54.6543;970.459;;;;
2020/02/21 12:38:20;;;;;;;4.9;1.7;;;;;;;6.78;52.82031;970.4048;;;;
2020/02/21 12:40:45;;;;;;;6.9;1.8;;;;;;;6.95;53.28613;970.3514;;;;
2020/02/21 12:43:10;;;;;;;8.7;2.6;;;;;;;7.02;52.96387;970.3848;;;;
2020/02/21 12:45:35;;;;;;;4.8;1.4;;;;;;;6.96;53.25391;970.3592;;;;
2020/02/21 12:48:01;;;;;;;6.3;1.9;;;;;;;7.11;53.29492;970.3123;;;;
2020/02/21 12:50:26;;;;;;;7.4;2.2;;;;;;;7.26;51.73633;970.3488;;;;
2020/02/21 12:52:52;;;;;;;5.7;1.5;;;;;;;7.23;49.5752;970.4056;;;;
2020/02/21 12:55:17;;;;;;;5.2;1.7;;;;;;;7.24;49.74805;970.4292;;;;
2020/02/21 12:57:42;;;;;;;4;1.4;;;;;;;7.06;49.71582;970.3757;;;;
2020/02/21 13:00:10;;;;;;;5.7;1.5;;;;;;;6.92;49.21973;970.3492;;;;
2020/02/21 13:02:32;;;;;;;4.4;1.4;;;;;;;6.91;50.30273;970.4088;;;;
2020/02/21 13:04:57;;;;;;;6.8;1.7;;;;;;;7.13;49.74609;970.4819;;;;
2020/02/21 13:07:22;;;;;;;4.1;1.4;;;;;;;7.14;49.92969;970.4125;;;;
2020/02/21 13:09:47;;;;;;;5.3;1.7;;;;;;;7.26;49.61328;970.4625;;;;
2020/02/21 13:12:12;;;;;;;8.4;2;;;;;;;7.38;49.23828;970.4341;;;;
2020/02/21 13:14:44;;;;;;;7.4;1.8;;;;;;;7.31;49.70996;970.3653;;;;
2020/02/21 13:17:03;;;;;;;5.9;2;;;;;;;7.43;50.63867;970.2793;;;;
2020/02/21 13:19:28;;;;;;;7.4;1.9;;;;;;;7.58;50.50684;970.2549;;;;
2020/02/21 13:21:53;;;;;;;4.9;1.6;;;;;;;7.57;50.81445;970.2647;;;;
2020/02/21 13:24:18;;;;;;;5.4;1.5;;;;;;;7.39;50.36914;970.2576;;;;
2020/02/21 13:26:43;;;;;;;4.5;1.9;;;;;;;7.51;50.22461;970.2947;;;;
2020/02/21 13:29:08;;;;;;;5.7;1.5;;;;;;;7.72;50.76367;970.2852;;;;
2020/02/21 13:31:34;;;;;;;7.1;1.5;;;;;;;7.67;51.18066;970.3283;;;;
2020/02/21 13:33:59;;;;;;;6.1;1.7;;;;;;;7.68;49.50195;970.3206;;;;
2020/02/21 13:36:24;;;;;;;4.3;1.4;;;;;;;7.64;49.67969;970.2855;;;;
2020/02/21 13:38:49;;;;;;;6.2;1.8;;;;;;;7.6;49.82422;970.2958;;;;
2020/02/21 13:41:14;;;;;;;7.2;1.9;;;;;;;7.7;48.08594;970.2509;;;;
2020/02/21 13:43:40;;;;;;;7.9;2.1;;;;;;;7.56;49.29297;970.2181;;;;
2020/02/21 13:46:05;;;;;;;6.4;1.5;;;;;;;7.41;49.13867;970.2003;;;;
2020/02/21 13:48:30;;;;;;;5.1;1.7;;;;;;;7.54;49.55371;970.2241;;;;
2020/02/21 13:50:55;;;;;;;6.5;1.8;;;;;;;7.48;49.27246;970.2466;;;;
2020/02/21 13:53:20;;;;;;;8.4;2.3;;;;;;;7.34;50.2959;970.2278;;;;
2020/02/21 13:58:11;;;;;;;3.6;1.2;;;;;;;7.33;50.05469;970.2151;;;;
2020/02/21 14:00:36;;;;;;;3.3;1.1;;;;;;;7.39;48.79492;970.1909;;;;
2020/02/21 14:03:01;;;;;;;5.4;1.4;;;;;;;7.42;49.26563;970.1635;;;;
2020/02/21 14:05:26;;;;;;;5.4;1.6;;;;;;;7.36;49.80664;970.1844;;;;
2020/02/21 14:07:51;;;;;;;5.5;1.5;;;;;;;7.39;49.53613;970.1674;;;;
2020/02/21 14:10:32;;;;;;;5.4;2;;;;;;;7.48;49.58105;970.1573;;;;
2020/02/21 14:12:57;;;;;;;8.6;2;;;;;;;7.59;49.08008;970.1353;;;;
2020/02/21 14:15:23;;;;;;;6.9;1.8;;;;;;;7.46;49.16797;970.1874;;;;
2020/02/21 14:17:48;;;;;;;4.7;1.6;;;;;;;7.58;49.31934;970.2104;;;;
2020/02/21 14:20:13;;;;;;;12.1;2.6;;;;;;;7.66;48.92773;970.1965;;;;
2020/02/21 14:22:38;;;;;;;7.4;2.1;;;;;;;7.67;47.83105;970.1814;;;;
2020/02/21 14:25:03;;;;;;;5;1.6;;;;;;;7.62;48.11035;970.1562;;;;
2020/02/21 14:27:28;;;;;;;6.6;1.8;;;;;;;7.62;49.51758;970.2375;;;;
2020/02/21 14:29:53;;;;;;;4.2;1.8;;;;;;;7.51;48.48828;970.2203;;;;
2020/02/21 14:32:18;;;;;;;5.1;1.4;;;;;;;7.69;48.57715;970.1962;;;;
2020/02/21 14:34:43;;;;;;;5.1;1.6;;;;;;;7.74;48.70898;970.2073;;;;
2020/02/21 14:37:09;;;;;;;5.5;1.4;;;;;;;7.64;47.66797;970.2247;;;;
2020/02/21 14:39:34;;;;;;;6.5;1.3;;;;;;;7.74;48.05664;970.209;;;;
2020/02/21 14:41:59;;;;;;;5.6;1.6;;;;;;;7.61;47.91602;970.2443;;;;
2020/02/21 14:44:24;;;;;;;6.5;1.7;;;;;;;7.62;48.60156;970.2827;;;;
2020/02/21 14:46:49;;;;;;;6.7;1.6;;;;;;;7.55;49.16602;970.2472;;;;
2020/02/21 14:49:14;;;;;;;5.5;1.9;;;;;;;7.65;49.6123;970.1942;;;;
2020/02/21 14:51:39;;;;;;;4.7;1.6;;;;;;;7.69;49.28418;970.2291;;;;
2020/02/21 14:54:04;;;;;;;6.1;1.8;;;;;;;7.67;48.79102;970.1562;;;;
2020/02/21 14:56:30;;;;;;;4.2;1.6;;;;;;;7.76;48.92676;970.1945;;;;
2020/02/21 14:58:55;;;;;;;6;1.8;;;;;;;7.81;48.86426;970.1312;;;;
2020/02/21 15:01:20;;;;;;;3.9;1.6;;;;;;;7.74;48.85742;970.097;;;;
2020/02/21 15:03:45;;;;;;;5.8;1.5;;;;;;;7.68;48.87207;970.1046;;;;
2020/02/21 15:06:10;;;;;;;4.6;1.3;;;;;;;7.78;47.93457;970.1314;;;;
2020/02/21 15:08:35;;;;;;;6.4;1.7;;;;;;;7.82;48.47754;970.1;;;;
2020/02/21 15:11:00;;;;;;;4.7;1.4;;;;;;;7.63;48.2168;970.1733;;;;
2020/02/21 15:13:25;;;;;;;4.8;1.5;;;;;;;7.6;48.49707;970.1185;;;;
2020/02/21 15:15:50;;;;;;;5.7;1.5;;;;;;;7.68;48.00293;970.1516;;;;
2020/02/21 15:18:15;;;;;;;5.3;1.2;;;;;;;7.58;48.84961;970.1674;;;;
2020/02/21 15:20:41;;;;;;;5.1;1.3;;;;;;;7.62;48.20313;970.033;;;;
2020/02/21 15:23:06;;;;;;;4.3;1.3;;;;;;;7.53;49.24512;970.0442;;;;
2020/02/21 15:25:31;;;;;;;6;1.7;;;;;;;7.58;48.75781;969.9938;;;;
2020/02/21 15:27:56;;;;;;;4.9;1.5;;;;;;;7.56;48.9043;969.9222;;;;
2020/02/21 15:30:22;;;;;;;4;1.4;;;;;;;7.66;48.43652;969.8778;;;;